sensor_id;sensor_type;location;lat;lon;timestamp;temperature;humidity
13115;DHT22;6623;52.120;8.660;2023-03-26T00:00:43;8.70;84.50
13115;DHT22;6623;52.120;8.660;2023-03-26T00:03:12;8.70;84.40
13115;DHT22;6623;52.120;8.660;2023-03-26T00:05:39;8.70;84.40
13115;DHT22;6623;52.120;8.660;2023-03-26T00:08:05;8.70;84.30
13115;DHT22;6623;52.120;8.660;2023-03-26T00:10:34;8.70;84.30
13115;DHT22;6623;52.120;8.660;2023-03-26T00:13:01;8.70;84.80
13115;DHT22;6623;52.120;8.660;2023-03-26T00:15:27;8.70;84.10
13115;DHT22;6623;52.120;8.660;2023-03-26T00:17:52;8.70;84.60
13115;DHT22;6623;52.120;8.660;2023-03-26T00:20:18;8.70;83.90
13115;DHT22;6623;52.120;8.660;2023-03-26T00:22:44;8.70;84.00
13115;DHT22;6623;52.120;8.660;2023-03-26T00:25:10;8.70;84.00
13115;DHT22;6623;52.120;8.660;2023-03-26T00:27:35;8.70;83.90
13115;DHT22;6623;52.120;8.660;2023-03-26T00:30:01;8.70;83.90
13115;DHT22;6623;52.120;8.660;2023-03-26T00:32:28;8.70;83.90
13115;DHT22;6623;52.120;8.660;2023-03-26T00:34:55;8.70;83.80
13115;DHT22;6623;52.120;8.660;2023-03-26T00:37:22;8.70;83.70
13115;DHT22;6623;52.120;8.660;2023-03-26T00:39:51;8.70;83.60
13115;DHT22;6623;52.120;8.660;2023-03-26T00:42:17;8.70;83.60
13115;DHT22;6623;52.120;8.660;2023-03-26T00:44:42;8.70;83.60
13115;DHT22;6623;52.120;8.660;2023-03-26T00:47:08;8.70;83.60
13115;DHT22;6623;52.120;8.660;2023-03-26T00:49:33;8.70;83.60
13115;DHT22;6623;52.120;8.660;2023-03-26T00:51:59;8.70;83.50
13115;DHT22;6623;52.120;8.660;2023-03-26T00:54:25;8.70;83.50
13115;DHT22;6623;52.120;8.660;2023-03-26T00:56:52;8.70;83.50
13115;DHT22;6623;52.120;8.660;2023-03-26T00:59:21;8.70;83.50
13115;DHT22;6623;52.120;8.660;2023-03-26T01:01:47;8.70;83.40
13115;DHT22;6623;52.120;8.660;2023-03-26T01:04:28;8.70;83.40
13115;DHT22;6623;52.120;8.660;2023-03-26T01:06:56;8.70;83.40
13115;DHT22;6623;52.120;8.660;2023-03-26T01:09:30;8.70;83.30
13115;DHT22;6623;52.120;8.660;2023-03-26T01:11:59;8.70;83.30
13115;DHT22;6623;52.120;8.660;2023-03-26T01:14:25;8.70;83.30
13115;DHT22;6623;52.120;8.660;2023-03-26T01:16:56;8.70;83.30
13115;DHT22;6623;52.120;8.660;2023-03-26T01:19:52;8.70;83.30
13115;DHT22;6623;52.120;8.660;2023-03-26T01:22:21;8.70;83.30
13115;DHT22;6623;52.120;8.660;2023-03-26T01:24:47;8.70;83.30
13115;DHT22;6623;52.120;8.660;2023-03-26T01:27:37;8.60;83.20
13115;DHT22;6623;52.120;8.660;2023-03-26T01:40:51;8.70;83.80
13115;DHT22;6623;52.120;8.660;2023-03-26T01:43:53;8.70;83.90
13115;DHT22;6623;52.120;8.660;2023-03-26T01:46:23;8.70;83.90
13115;DHT22;6623;52.120;8.660;2023-03-26T01:48:50;8.60;83.80
13115;DHT22;6623;52.120;8.660;2023-03-26T01:51:32;8.60;83.80
13115;DHT22;6623;52.120;8.660;2023-03-26T01:53:58;8.60;83.80
13115;DHT22;6623;52.120;8.660;2023-03-26T01:56:35;8.60;83.80
13115;DHT22;6623;52.120;8.660;2023-03-26T01:59:16;8.60;83.80
13115;DHT22;6623;52.120;8.660;2023-03-26T02:04:46;8.60;83.90
13115;DHT22;6623;52.120;8.660;2023-03-26T02:07:22;8.60;84.00
13115;DHT22;6623;52.120;8.660;2023-03-26T02:10:05;8.60;84.00
13115;DHT22;6623;52.120;8.660;2023-03-26T02:12:32;8.60;84.00
13115;DHT22;6623;52.120;8.660;2023-03-26T02:15:01;8.60;83.90
13115;DHT22;6623;52.120;8.660;2023-03-26T02:17:26;8.60;83.80
13115;DHT22;6623;52.120;8.660;2023-03-26T02:19:55;8.60;83.80
13115;DHT22;6623;52.120;8.660;2023-03-26T02:22:20;8.50;83.80
13115;DHT22;6623;52.120;8.660;2023-03-26T02:24:47;8.50;84.00
13115;DHT22;6623;52.120;8.660;2023-03-26T02:27:13;8.50;84.10
13115;DHT22;6623;52.120;8.660;2023-03-26T02:29:42;8.50;84.10
13115;DHT22;6623;52.120;8.660;2023-03-26T02:32:09;8.50;84.10
13115;DHT22;6623;52.120;8.660;2023-03-26T02:34:39;8.50;83.90
13115;DHT22;6623;52.120;8.660;2023-03-26T02:37:05;8.40;83.80
13115;DHT22;6623;52.120;8.660;2023-03-26T02:39:31;8.40;84.00
13115;DHT22;6623;52.120;8.660;2023-03-26T02:41:56;8.40;84.00
13115;DHT22;6623;52.120;8.660;2023-03-26T02:44:22;8.40;83.90
13115;DHT22;6623;52.120;8.660;2023-03-26T02:46:47;8.40;83.80
13115;DHT22;6623;52.120;8.660;2023-03-26T02:49:13;8.30;83.90
13115;DHT22;6623;52.120;8.660;2023-03-26T02:51:39;8.30;84.10
13115;DHT22;6623;52.120;8.660;2023-03-26T02:54:04;8.30;84.30
13115;DHT22;6623;52.120;8.660;2023-03-26T02:56:31;8.30;84.50
13115;DHT22;6623;52.120;8.660;2023-03-26T02:58:57;8.40;84.70
13115;DHT22;6623;52.120;8.660;2023-03-26T03:01:22;8.40;84.80
13115;DHT22;6623;52.120;8.660;2023-03-26T03:03:48;8.40;84.80
13115;DHT22;6623;52.120;8.660;2023-03-26T03:06:15;8.50;84.90
13115;DHT22;6623;52.120;8.660;2023-03-26T03:08:44;8.50;84.80
13115;DHT22;6623;52.120;8.660;2023-03-26T03:11:17;8.50;85.40
13115;DHT22;6623;52.120;8.660;2023-03-26T03:13:46;8.50;84.80
13115;DHT22;6623;52.120;8.660;2023-03-26T03:16:12;8.50;84.70
13115;DHT22;6623;52.120;8.660;2023-03-26T03:18:38;8.50;84.80
13115;DHT22;6623;52.120;8.660;2023-03-26T03:21:04;8.50;84.70
13115;DHT22;6623;52.120;8.660;2023-03-26T03:23:30;8.50;84.80
13115;DHT22;6623;52.120;8.660;2023-03-26T03:25:57;8.50;84.80
13115;DHT22;6623;52.120;8.660;2023-03-26T03:28:24;8.50;84.90
13115;DHT22;6623;52.120;8.660;2023-03-26T03:30:50;8.50;84.90
13115;DHT22;6623;52.120;8.660;2023-03-26T03:33:19;8.60;85.00
13115;DHT22;6623;52.120;8.660;2023-03-26T03:35:46;8.50;85.00
13115;DHT22;6623;52.120;8.660;2023-03-26T03:38:13;8.60;85.10
13115;DHT22;6623;52.120;8.660;2023-03-26T03:40:39;8.60;85.10
13115;DHT22;6623;52.120;8.660;2023-03-26T03:43:04;8.60;85.20
13115;DHT22;6623;52.120;8.660;2023-03-26T03:45:30;8.60;85.20
13115;DHT22;6623;52.120;8.660;2023-03-26T03:47:55;8.60;85.20
13115;DHT22;6623;52.120;8.660;2023-03-26T03:50:21;8.60;85.20
13115;DHT22;6623;52.120;8.660;2023-03-26T03:52:47;8.60;85.20
13115;DHT22;6623;52.120;8.660;2023-03-26T03:55:12;8.60;85.20
13115;DHT22;6623;52.120;8.660;2023-03-26T03:57:38;8.70;85.30
13115;DHT22;6623;52.120;8.660;2023-03-26T04:00:05;8.60;85.30
13115;DHT22;6623;52.120;8.660;2023-03-26T04:02:33;8.60;85.40
13115;DHT22;6623;52.120;8.660;2023-03-26T04:05:01;8.70;85.50
13115;DHT22;6623;52.120;8.660;2023-03-26T04:07:28;8.70;85.60
13115;DHT22;6623;52.120;8.660;2023-03-26T04:09:58;8.70;85.60
13115;DHT22;6623;52.120;8.660;2023-03-26T04:12:30;8.70;85.50
13115;DHT22;6623;52.120;8.660;2023-03-26T04:14:57;8.70;85.60
13115;DHT22;6623;52.120;8.660;2023-03-26T04:17:22;8.70;85.60
13115;DHT22;6623;52.120;8.660;2023-03-26T04:19:49;8.70;85.80
13115;DHT22;6623;52.120;8.660;2023-03-26T04:22:17;8.70;85.90
13115;DHT22;6623;52.120;8.660;2023-03-26T04:24:43;8.70;85.90
13115;DHT22;6623;52.120;8.660;2023-03-26T04:27:12;8.70;86.00
13115;DHT22;6623;52.120;8.660;2023-03-26T04:29:44;8.70;85.90
13115;DHT22;6623;52.120;8.660;2023-03-26T04:32:30;8.70;86.00
13115;DHT22;6623;52.120;8.660;2023-03-26T04:35:00;8.70;86.00
13115;DHT22;6623;52.120;8.660;2023-03-26T04:37:36;8.80;86.00
13115;DHT22;6623;52.120;8.660;2023-03-26T04:40:07;8.70;86.00
13115;DHT22;6623;52.120;8.660;2023-03-26T04:42:37;8.80;86.00
13115;DHT22;6623;52.120;8.660;2023-03-26T04:45:06;8.80;86.00
13115;DHT22;6623;52.120;8.660;2023-03-26T04:47:32;8.80;85.90
13115;DHT22;6623;52.120;8.660;2023-03-26T04:50:02;8.80;85.90
13115;DHT22;6623;52.120;8.660;2023-03-26T04:52:28;8.80;85.90
13115;DHT22;6623;52.120;8.660;2023-03-26T04:54:53;8.80;86.00
13115;DHT22;6623;52.120;8.660;2023-03-26T04:57:34;8.80;86.00
13115;DHT22;6623;52.120;8.660;2023-03-26T05:00:00;8.80;86.00
13115;DHT22;6623;52.120;8.660;2023-03-26T05:02:41;8.80;86.00
13115;DHT22;6623;52.120;8.660;2023-03-26T05:05:08;8.80;86.00
13115;DHT22;6623;52.120;8.660;2023-03-26T05:07:33;8.80;86.00
13115;DHT22;6623;52.120;8.660;2023-03-26T05:10:00;8.80;86.00
13115;DHT22;6623;52.120;8.660;2023-03-26T05:12:28;8.80;86.00
13115;DHT22;6623;52.120;8.660;2023-03-26T05:14:53;8.80;86.10
13115;DHT22;6623;52.120;8.660;2023-03-26T05:17:21;8.80;86.20
13115;DHT22;6623;52.120;8.660;2023-03-26T05:19:48;8.80;86.30
13115;DHT22;6623;52.120;8.660;2023-03-26T05:22:13;8.80;86.30
13115;DHT22;6623;52.120;8.660;2023-03-26T05:24:39;8.80;86.20
13115;DHT22;6623;52.120;8.660;2023-03-26T05:27:04;8.80;86.20
13115;DHT22;6623;52.120;8.660;2023-03-26T05:29:30;8.80;86.30
13115;DHT22;6623;52.120;8.660;2023-03-26T05:31:56;8.80;86.30
13115;DHT22;6623;52.120;8.660;2023-03-26T05:34:21;8.90;86.40
13115;DHT22;6623;52.120;8.660;2023-03-26T05:36:50;8.90;86.40
13115;DHT22;6623;52.120;8.660;2023-03-26T05:39:16;8.90;86.40
13115;DHT22;6623;52.120;8.660;2023-03-26T05:41:41;8.90;86.40
13115;DHT22;6623;52.120;8.660;2023-03-26T05:44:07;8.90;86.50
13115;DHT22;6623;52.120;8.660;2023-03-26T05:46:32;8.90;86.50
13115;DHT22;6623;52.120;8.660;2023-03-26T05:48:58;8.90;86.50
13115;DHT22;6623;52.120;8.660;2023-03-26T05:51:23;8.90;86.60
13115;DHT22;6623;52.120;8.660;2023-03-26T05:53:49;8.90;86.70
13115;DHT22;6623;52.120;8.660;2023-03-26T05:56:15;8.90;86.60
13115;DHT22;6623;52.120;8.660;2023-03-26T05:58:40;8.90;86.70
13115;DHT22;6623;52.120;8.660;2023-03-26T06:01:12;9.00;86.80
13115;DHT22;6623;52.120;8.660;2023-03-26T06:03:42;9.00;86.80
13115;DHT22;6623;52.120;8.660;2023-03-26T06:06:11;9.00;86.80
13115;DHT22;6623;52.120;8.660;2023-03-26T06:08:44;9.00;86.80
13115;DHT22;6623;52.120;8.660;2023-03-26T06:11:13;9.00;86.90
13115;DHT22;6623;52.120;8.660;2023-03-26T06:13:40;9.00;86.90
13115;DHT22;6623;52.120;8.660;2023-03-26T06:16:07;9.10;87.00
13115;DHT22;6623;52.120;8.660;2023-03-26T06:18:33;9.10;86.80
13115;DHT22;6623;52.120;8.660;2023-03-26T06:20:58;9.10;86.70
13115;DHT22;6623;52.120;8.660;2023-03-26T06:23:24;9.00;86.70
13115;DHT22;6623;52.120;8.660;2023-03-26T06:25:50;9.00;86.70
13115;DHT22;6623;52.120;8.660;2023-03-26T06:28:16;9.10;86.70
13115;DHT22;6623;52.120;8.660;2023-03-26T06:30:41;9.10;86.70
13115;DHT22;6623;52.120;8.660;2023-03-26T06:33:07;9.10;86.90
13115;DHT22;6623;52.120;8.660;2023-03-26T06:35:32;9.10;87.00
13115;DHT22;6623;52.120;8.660;2023-03-26T06:37:58;9.10;87.10
13115;DHT22;6623;52.120;8.660;2023-03-26T06:40:24;9.10;87.20
13115;DHT22;6623;52.120;8.660;2023-03-26T06:42:50;9.20;87.30
13115;DHT22;6623;52.120;8.660;2023-03-26T06:45:17;9.20;87.50
13115;DHT22;6623;52.120;8.660;2023-03-26T06:47:43;9.30;87.50
13115;DHT22;6623;52.120;8.660;2023-03-26T06:50:09;9.30;87.30
13115;DHT22;6623;52.120;8.660;2023-03-26T06:52:36;9.30;87.20
13115;DHT22;6623;52.120;8.660;2023-03-26T06:55:02;9.40;87.20
13115;DHT22;6623;52.120;8.660;2023-03-26T06:57:30;9.40;87.20
13115;DHT22;6623;52.120;8.660;2023-03-26T06:59:55;9.40;87.30
13115;DHT22;6623;52.120;8.660;2023-03-26T07:02:21;9.40;87.30
13115;DHT22;6623;52.120;8.660;2023-03-26T07:04:46;9.40;87.40
13115;DHT22;6623;52.120;8.660;2023-03-26T07:07:12;9.50;87.40
13115;DHT22;6623;52.120;8.660;2023-03-26T07:09:38;9.50;87.50
13115;DHT22;6623;52.120;8.660;2023-03-26T07:12:04;9.50;87.60
13115;DHT22;6623;52.120;8.660;2023-03-26T07:14:30;9.60;87.70
13115;DHT22;6623;52.120;8.660;2023-03-26T07:17:00;9.60;87.60
13115;DHT22;6623;52.120;8.660;2023-03-26T07:19:26;9.60;87.40
13115;DHT22;6623;52.120;8.660;2023-03-26T07:21:51;9.70;87.40
13115;DHT22;6623;52.120;8.660;2023-03-26T07:24:17;9.70;87.40
13115;DHT22;6623;52.120;8.660;2023-03-26T07:27:03;9.70;87.40
13115;DHT22;6623;52.120;8.660;2023-03-26T07:29:40;9.80;87.40
13115;DHT22;6623;52.120;8.660;2023-03-26T07:34:49;9.90;87.60
13115;DHT22;6623;52.120;8.660;2023-03-26T07:40:08;10.10;87.40
13115;DHT22;6623;52.120;8.660;2023-03-26T07:43:18;10.20;87.30
13115;DHT22;6623;52.120;8.660;2023-03-26T07:45:47;10.20;87.00
13115;DHT22;6623;52.120;8.660;2023-03-26T07:48:21;10.20;86.80
13115;DHT22;6623;52.120;8.660;2023-03-26T07:50:55;10.30;86.60
13115;DHT22;6623;52.120;8.660;2023-03-26T07:53:22;10.30;86.50
13115;DHT22;6623;52.120;8.660;2023-03-26T07:56:06;10.30;86.30
13115;DHT22;6623;52.120;8.660;2023-03-26T07:58:50;10.40;86.20
13115;DHT22;6623;52.120;8.660;2023-03-26T08:01:34;10.40;85.90
13115;DHT22;6623;52.120;8.660;2023-03-26T08:04:32;10.40;85.80
13115;DHT22;6623;52.120;8.660;2023-03-26T08:10:14;10.50;85.30
13115;DHT22;6623;52.120;8.660;2023-03-26T08:13:05;10.50;85.10
13115;DHT22;6623;52.120;8.660;2023-03-26T08:15:56;10.50;85.00
13115;DHT22;6623;52.120;8.660;2023-03-26T08:18:45;10.50;85.10
13115;DHT22;6623;52.120;8.660;2023-03-26T08:21:27;10.60;84.80
13115;DHT22;6623;52.120;8.660;2023-03-26T08:27:01;10.60;84.10
13115;DHT22;6623;52.120;8.660;2023-03-26T08:30:04;11.00;84.20
13115;DHT22;6623;52.120;8.660;2023-03-26T08:32:33;10.70;83.70
13115;DHT22;6623;52.120;8.660;2023-03-26T08:34:58;10.80;83.90
13115;DHT22;6623;52.120;8.660;2023-03-26T08:37:24;10.80;83.80
13115;DHT22;6623;52.120;8.660;2023-03-26T08:39:52;11.70;84.00
13115;DHT22;6623;52.120;8.660;2023-03-26T08:45:33;11.10;83.10
13115;DHT22;6623;52.120;8.660;2023-03-26T08:51:00;11.20;82.30
13115;DHT22;6623;52.120;8.660;2023-03-26T08:53:48;11.20;82.10
13115;DHT22;6623;52.120;8.660;2023-03-26T08:57:05;11.20;82.00
13115;DHT22;6623;52.120;8.660;2023-03-26T09:05:43;11.10;81.10
13115;DHT22;6623;52.120;8.660;2023-03-26T09:44:54;10.80;78.70
13115;DHT22;6623;52.120;8.660;2023-03-26T09:53:25;11.00;78.50
13115;DHT22;6623;52.120;8.660;2023-03-26T09:56:12;11.00;78.20
13115;DHT22;6623;52.120;8.660;2023-03-26T09:59:08;11.10;78.40
13115;DHT22;6623;52.120;8.660;2023-03-26T10:12:38;11.30;77.20
13115;DHT22;6623;52.120;8.660;2023-03-26T10:21:05;11.30;77.20
13115;DHT22;6623;52.120;8.660;2023-03-26T10:24:07;11.40;77.20
13115;DHT22;6623;52.120;8.660;2023-03-26T10:27:02;11.40;76.90
13115;DHT22;6623;52.120;8.660;2023-03-26T10:30:06;11.40;77.00
13115;DHT22;6623;52.120;8.660;2023-03-26T10:35:40;11.40;76.60
13115;DHT22;6623;52.120;8.660;2023-03-26T10:41:09;11.40;76.30
13115;DHT22;6623;52.120;8.660;2023-03-26T10:47:09;11.40;76.20
13115;DHT22;6623;52.120;8.660;2023-03-26T10:50:39;11.30;76.20
13115;DHT22;6623;52.120;8.660;2023-03-26T10:53:11;11.40;76.00
13115;DHT22;6623;52.120;8.660;2023-03-26T10:55:39;11.40;75.80
13115;DHT22;6623;52.120;8.660;2023-03-26T11:00:43;11.60;76.30
13115;DHT22;6623;52.120;8.660;2023-03-26T11:17:54;11.70;73.70
13115;DHT22;6623;52.120;8.660;2023-03-26T11:23:12;11.70;74.10
13115;DHT22;6623;52.120;8.660;2023-03-26T11:28:32;11.80;74.20
13115;DHT22;6623;52.120;8.660;2023-03-26T11:33:48;11.90;73.40
13115;DHT22;6623;52.120;8.660;2023-03-26T11:36:25;11.90;73.00
13115;DHT22;6623;52.120;8.660;2023-03-26T11:38:56;11.80;72.80
13115;DHT22;6623;52.120;8.660;2023-03-26T11:41:26;11.80;73.00
13115;DHT22;6623;52.120;8.660;2023-03-26T11:44:26;11.80;73.20
13115;DHT22;6623;52.120;8.660;2023-03-26T11:46:56;11.80;73.10
13115;DHT22;6623;52.120;8.660;2023-03-26T11:49:24;11.80;72.70
13115;DHT22;6623;52.120;8.660;2023-03-26T11:51:50;11.80;72.90
13115;DHT22;6623;52.120;8.660;2023-03-26T11:54:16;11.80;72.70
13115;DHT22;6623;52.120;8.660;2023-03-26T11:56:49;11.70;72.50
13115;DHT22;6623;52.120;8.660;2023-03-26T12:04:42;11.50;72.70
13115;DHT22;6623;52.120;8.660;2023-03-26T12:07:22;11.50;72.90
13115;DHT22;6623;52.120;8.660;2023-03-26T12:09:57;11.50;73.20
13115;DHT22;6623;52.120;8.660;2023-03-26T12:12:25;11.50;73.50
13115;DHT22;6623;52.120;8.660;2023-03-26T12:14:51;11.50;73.50
13115;DHT22;6623;52.120;8.660;2023-03-26T12:17:28;11.50;73.40
13115;DHT22;6623;52.120;8.660;2023-03-26T12:19:54;11.40;73.20
13115;DHT22;6623;52.120;8.660;2023-03-26T12:22:35;11.40;73.40
13115;DHT22;6623;52.120;8.660;2023-03-26T12:27:48;11.40;73.30
13115;DHT22;6623;52.120;8.660;2023-03-26T12:30:28;11.40;73.10
13115;DHT22;6623;52.120;8.660;2023-03-26T12:33:01;11.40;73.70
13115;DHT22;6623;52.120;8.660;2023-03-26T12:35:29;11.40;73.90
13115;DHT22;6623;52.120;8.660;2023-03-26T12:41:08;11.40;73.90
13115;DHT22;6623;52.120;8.660;2023-03-26T12:46:45;11.40;72.70
13115;DHT22;6623;52.120;8.660;2023-03-26T12:49:12;11.30;72.70
13115;DHT22;6623;52.120;8.660;2023-03-26T12:51:52;11.10;72.80
13115;DHT22;6623;52.120;8.660;2023-03-26T12:54:43;11.00;73.10
13115;DHT22;6623;52.120;8.660;2023-03-26T12:57:23;10.80;73.80
13115;DHT22;6623;52.120;8.660;2023-03-26T13:14:22;10.50;76.90
13115;DHT22;6623;52.120;8.660;2023-03-26T13:20:04;10.50;77.30
13115;DHT22;6623;52.120;8.660;2023-03-26T13:25:36;10.50;77.80
13115;DHT22;6623;52.120;8.660;2023-03-26T13:31:27;10.60;78.10
13115;DHT22;6623;52.120;8.660;2023-03-26T13:34:06;10.60;78.30
13115;DHT22;6623;52.120;8.660;2023-03-26T13:37:15;10.60;78.50
13115;DHT22;6623;52.120;8.660;2023-03-26T13:48:16;10.70;79.40
13115;DHT22;6623;52.120;8.660;2023-03-26T13:50:49;10.70;79.50
13115;DHT22;6623;52.120;8.660;2023-03-26T13:53:21;10.70;79.80
13115;DHT22;6623;52.120;8.660;2023-03-26T13:55:52;10.70;80.00
13115;DHT22;6623;52.120;8.660;2023-03-26T14:01:14;10.70;80.20
13115;DHT22;6623;52.120;8.660;2023-03-26T14:03:57;10.70;80.20
13115;DHT22;6623;52.120;8.660;2023-03-26T14:07:02;10.70;80.30
13115;DHT22;6623;52.120;8.660;2023-03-26T14:09:45;10.70;80.20
13115;DHT22;6623;52.120;8.660;2023-03-26T14:12:26;10.60;79.90
13115;DHT22;6623;52.120;8.660;2023-03-26T14:23:14;9.80;82.60
13115;DHT22;6623;52.120;8.660;2023-03-26T14:51:22;9.00;84.50
13115;DHT22;6623;52.120;8.660;2023-03-26T14:53:54;8.90;84.10
